This is the latest recevied weather packets stored in our database for station/object W3EJE-13. If no packets are shown the sender has not sent any weather packets the latest 10 day(s).
| Time | Temp. | Humidity | Pressure | Rain* | Wind** | Luminosity | Snow |
|---|---|---|---|---|---|---|---|
| 1777568655 | 7.78° C | 96% | 1012.9 hPa | 1.78 mm | - | 285 W/m² | - |
| 1777568353 | 7.78° C | 95% | 1013.2 hPa | 1.78 mm | - | 393 W/m² | - |
| 1777568050 | 7.78° C | 93% | 1013 hPa | 0 mm | - | 205 W/m² | - |
| 1777567746 | 7.78° C | 90% | 1013 hPa | 0 mm | - | 160 W/m² | - |
| 1777567443 | 8.89° C | 90% | 1012.9 hPa | 0 mm | - | 248 W/m² | - |
| 1777567141 | 9.44° C | 89% | 1012.7 hPa | 0 mm | - | 340 W/m² | - |
| 1777566838 | 8.89° C | 92% | 1012.6 hPa | 0 mm | - | 814 W/m² | - |
| 1777566536 | 8.33° C | 92% | 1012.6 hPa | 0 mm | - | 785 W/m² | - |
| 1777566233 | 8.33° C | 90% | 1012.8 hPa | 0 mm | - | 288 W/m² | - |
| 1777565930 | 8.33° C | 89% | 1013 hPa | 0 mm | - | 346 W/m² | - |
| 1777565625 | 8.33° C | 91% | 1013 hPa | 0 mm | - | 229 W/m² | - |
| 1777565322 | 8.33° C | 92% | 1012.9 hPa | 0 mm | - | 221 W/m² | - |
| 1777565018 | 7.78° C | 90% | 1013.1 hPa | 0 mm | - | 285 W/m² | - |
| 1777564714 | 8.89° C | 83% | 1012.9 hPa | 0 mm | - | 146 W/m² | - |
| 1777564409 | 10° C | 78% | 1012.7 hPa | 0 mm | - | 188 W/m² | - |
| 1777564106 | 10° C | 76% | 1012.7 hPa | 0 mm | - | 147 W/m² | - |
| 1777563802 | 10° C | 76% | 1012.5 hPa | 0 mm | - | 229 W/m² | - |
| 1777563498 | 9.44° C | 78% | 1012.6 hPa | 0 mm | - | 278 W/m² | - |
| 1777563197 | 10° C | 78% | 1012.4 hPa | 0 mm | - | 248 W/m² | - |
| 1777562894 | 10° C | 78% | 1012.1 hPa | 0 mm | - | 183 W/m² | - |
| 1777562590 | 10° C | 77% | 1012.3 hPa | 0 mm | - | 265 W/m² | - |
| 1777562289 | 10° C | 77% | 1012.4 hPa | 0 mm | - | 278 W/m² | - |
| 1777561986 | 10° C | 77% | 1012 hPa | 0 mm | - | 303 W/m² | - |
| 1777561683 | 10° C | 76% | 1012 hPa | 0 mm | - | 783 W/m² | - |
| 1777561378 | 9.44° C | 78% | 1012.3 hPa | 0 mm | - | 160 W/m² | - |
* Rain latest hour (hover to see other rain measurements)
** Current wind speed in m/s (hover to see current wind gust speed)